sensor_id;sensor_type;location;lat;lon;timestamp;temperature;humidity
16321;DHT22;8269;50.990;4.494;2022-09-21T00:00:45;8.30;99.90
16321;DHT22;8269;50.990;4.494;2022-09-21T00:03:12;8.30;99.90
16321;DHT22;8269;50.990;4.494;2022-09-21T00:05:38;8.30;99.90
16321;DHT22;8269;50.990;4.494;2022-09-21T00:08:05;8.30;99.90
16321;DHT22;8269;50.990;4.494;2022-09-21T00:10:31;8.30;99.90
16321;DHT22;8269;50.990;4.494;2022-09-21T00:12:58;8.40;99.90
16321;DHT22;8269;50.990;4.494;2022-09-21T00:15:24;8.30;99.90
16321;DHT22;8269;50.990;4.494;2022-09-21T00:17:54;8.40;99.90
16321;DHT22;8269;50.990;4.494;2022-09-21T00:20:20;8.40;99.90
16321;DHT22;8269;50.990;4.494;2022-09-21T00:22:47;8.40;99.90
16321;DHT22;8269;50.990;4.494;2022-09-21T00:25:13;8.50;99.90
16321;DHT22;8269;50.990;4.494;2022-09-21T00:27:39;8.40;99.90
16321;DHT22;8269;50.990;4.494;2022-09-21T00:30:06;8.40;99.90
16321;DHT22;8269;50.990;4.494;2022-09-21T00:32:33;8.40;99.90
16321;DHT22;8269;50.990;4.494;2022-09-21T00:35:00;8.30;99.90
16321;DHT22;8269;50.990;4.494;2022-09-21T00:37:27;8.30;99.90
16321;DHT22;8269;50.990;4.494;2022-09-21T00:39:53;8.30;99.90
16321;DHT22;8269;50.990;4.494;2022-09-21T00:42:23;8.30;99.90
16321;DHT22;8269;50.990;4.494;2022-09-21T00:44:49;8.30;99.90
16321;DHT22;8269;50.990;4.494;2022-09-21T00:47:39;8.30;99.90
16321;DHT22;8269;50.990;4.494;2022-09-21T00:50:13;8.30;99.90
16321;DHT22;8269;50.990;4.494;2022-09-21T00:52:59;8.30;99.90
16321;DHT22;8269;50.990;4.494;2022-09-21T00:55:28;8.30;99.90
16321;DHT22;8269;50.990;4.494;2022-09-21T00:57:59;8.30;99.90
16321;DHT22;8269;50.990;4.494;2022-09-21T01:00:27;8.20;99.90
16321;DHT22;8269;50.990;4.494;2022-09-21T01:02:53;8.30;99.90
16321;DHT22;8269;50.990;4.494;2022-09-21T01:05:26;8.30;99.90
16321;DHT22;8269;50.990;4.494;2022-09-21T01:07:53;8.30;99.90
16321;DHT22;8269;50.990;4.494;2022-09-21T01:10:19;8.20;99.90
16321;DHT22;8269;50.990;4.494;2022-09-21T01:16:04;8.20;99.90
16321;DHT22;8269;50.990;4.494;2022-09-21T01:18:50;8.20;99.90
16321;DHT22;8269;50.990;4.494;2022-09-21T01:21:24;8.10;99.90
16321;DHT22;8269;50.990;4.494;2022-09-21T01:29:51;8.10;99.90
16321;DHT22;8269;50.990;4.494;2022-09-21T01:34:55;8.10;99.90
16321;DHT22;8269;50.990;4.494;2022-09-21T01:38:11;8.10;99.90
16321;DHT22;8269;50.990;4.494;2022-09-21T01:43:17;7.90;99.90
16321;DHT22;8269;50.990;4.494;2022-09-21T01:45:48;8.00;99.90
16321;DHT22;8269;50.990;4.494;2022-09-21T01:48:17;7.90;99.90
16321;DHT22;8269;50.990;4.494;2022-09-21T01:50:48;7.90;99.90
16321;DHT22;8269;50.990;4.494;2022-09-21T01:53:43;7.90;99.90
16321;DHT22;8269;50.990;4.494;2022-09-21T01:56:12;7.80;99.90
16321;DHT22;8269;50.990;4.494;2022-09-21T01:59:04;7.70;99.90
16321;DHT22;8269;50.990;4.494;2022-09-21T02:01:38;7.60;99.90
16321;DHT22;8269;50.990;4.494;2022-09-21T02:04:09;7.60;99.90
16321;DHT22;8269;50.990;4.494;2022-09-21T02:06:39;7.60;99.90
16321;DHT22;8269;50.990;4.494;2022-09-21T02:09:06;7.60;99.90
16321;DHT22;8269;50.990;4.494;2022-09-21T02:11:33;7.60;99.90
16321;DHT22;8269;50.990;4.494;2022-09-21T02:14:03;7.60;99.90
16321;DHT22;8269;50.990;4.494;2022-09-21T02:19:30;7.60;99.90
16321;DHT22;8269;50.990;4.494;2022-09-21T02:22:14;7.60;99.90
16321;DHT22;8269;50.990;4.494;2022-09-21T02:24:49;7.70;99.90
16321;DHT22;8269;50.990;4.494;2022-09-21T02:30:20;7.70;99.90
16321;DHT22;8269;50.990;4.494;2022-09-21T02:33:01;7.50;99.90
16321;DHT22;8269;50.990;4.494;2022-09-21T02:35:57;7.60;99.90
16321;DHT22;8269;50.990;4.494;2022-09-21T02:38:43;7.60;99.90
16321;DHT22;8269;50.990;4.494;2022-09-21T02:41:27;7.60;99.90
16321;DHT22;8269;50.990;4.494;2022-09-21T02:44:05;7.60;99.90
16321;DHT22;8269;50.990;4.494;2022-09-21T02:46:38;7.50;99.90
16321;DHT22;8269;50.990;4.494;2022-09-21T02:49:08;7.50;99.90
16321;DHT22;8269;50.990;4.494;2022-09-21T02:51:39;7.50;99.90
16321;DHT22;8269;50.990;4.494;2022-09-21T02:54:08;7.50;99.90
16321;DHT22;8269;50.990;4.494;2022-09-21T02:56:36;7.40;99.90
16321;DHT22;8269;50.990;4.494;2022-09-21T02:59:03;7.40;99.90
16321;DHT22;8269;50.990;4.494;2022-09-21T03:01:30;7.30;99.90
16321;DHT22;8269;50.990;4.494;2022-09-21T03:03:56;7.20;99.90
16321;DHT22;8269;50.990;4.494;2022-09-21T03:06:22;7.20;99.90
16321;DHT22;8269;50.990;4.494;2022-09-21T03:08:48;7.20;99.90
16321;DHT22;8269;50.990;4.494;2022-09-21T03:11:17;7.20;99.90
16321;DHT22;8269;50.990;4.494;2022-09-21T03:13:43;7.20;99.90
16321;DHT22;8269;50.990;4.494;2022-09-21T03:16:10;7.20;99.90
16321;DHT22;8269;50.990;4.494;2022-09-21T03:18:35;7.30;99.90
16321;DHT22;8269;50.990;4.494;2022-09-21T03:21:01;7.20;99.90
16321;DHT22;8269;50.990;4.494;2022-09-21T03:23:28;7.30;99.90
16321;DHT22;8269;50.990;4.494;2022-09-21T03:25:54;7.30;99.90
16321;DHT22;8269;50.990;4.494;2022-09-21T03:28:20;7.30;99.90
16321;DHT22;8269;50.990;4.494;2022-09-21T03:30:50;7.30;99.90
16321;DHT22;8269;50.990;4.494;2022-09-21T03:33:17;7.20;99.90
16321;DHT22;8269;50.990;4.494;2022-09-21T03:35:43;7.10;99.90
16321;DHT22;8269;50.990;4.494;2022-09-21T03:38:10;7.10;99.90
16321;DHT22;8269;50.990;4.494;2022-09-21T03:40:35;7.10;99.90
16321;DHT22;8269;50.990;4.494;2022-09-21T03:43:01;7.00;99.90
16321;DHT22;8269;50.990;4.494;2022-09-21T03:45:27;6.90;99.90
16321;DHT22;8269;50.990;4.494;2022-09-21T03:47:57;6.90;99.90
16321;DHT22;8269;50.990;4.494;2022-09-21T03:50:24;6.90;99.90
16321;DHT22;8269;50.990;4.494;2022-09-21T03:52:50;6.90;99.90
16321;DHT22;8269;50.990;4.494;2022-09-21T03:55:16;6.70;99.90
16321;DHT22;8269;50.990;4.494;2022-09-21T03:57:41;6.70;99.90
16321;DHT22;8269;50.990;4.494;2022-09-21T04:00:08;6.60;99.90
16321;DHT22;8269;50.990;4.494;2022-09-21T04:02:36;6.70;99.90
16321;DHT22;8269;50.990;4.494;2022-09-21T04:05:02;6.80;99.90
16321;DHT22;8269;50.990;4.494;2022-09-21T04:07:31;6.80;99.90
16321;DHT22;8269;50.990;4.494;2022-09-21T04:10:01;6.80;99.90
16321;DHT22;8269;50.990;4.494;2022-09-21T04:12:27;6.90;99.90
16321;DHT22;8269;50.990;4.494;2022-09-21T04:14:53;6.90;99.90
16321;DHT22;8269;50.990;4.494;2022-09-21T04:17:19;6.90;99.90
16321;DHT22;8269;50.990;4.494;2022-09-21T04:19:44;6.90;99.90
16321;DHT22;8269;50.990;4.494;2022-09-21T04:22:10;6.90;99.90
16321;DHT22;8269;50.990;4.494;2022-09-21T04:24:37;6.90;99.90
16321;DHT22;8269;50.990;4.494;2022-09-21T04:27:06;6.80;99.90
16321;DHT22;8269;50.990;4.494;2022-09-21T04:29:31;6.80;99.90
16321;DHT22;8269;50.990;4.494;2022-09-21T04:31:58;6.60;99.90
16321;DHT22;8269;50.990;4.494;2022-09-21T04:34:23;6.70;99.90
16321;DHT22;8269;50.990;4.494;2022-09-21T04:36:49;6.70;99.90
16321;DHT22;8269;50.990;4.494;2022-09-21T04:39:14;6.70;99.90
16321;DHT22;8269;50.990;4.494;2022-09-21T04:41:40;6.70;99.90
16321;DHT22;8269;50.990;4.494;2022-09-21T04:44:07;6.70;99.90
16321;DHT22;8269;50.990;4.494;2022-09-21T04:46:33;6.70;99.90
16321;DHT22;8269;50.990;4.494;2022-09-21T04:48:59;6.70;99.90
16321;DHT22;8269;50.990;4.494;2022-09-21T04:51:24;6.60;99.90
16321;DHT22;8269;50.990;4.494;2022-09-21T04:53:50;6.60;99.90
16321;DHT22;8269;50.990;4.494;2022-09-21T04:56:16;6.70;99.90
16321;DHT22;8269;50.990;4.494;2022-09-21T04:58:42;6.70;99.90
16321;DHT22;8269;50.990;4.494;2022-09-21T05:01:08;6.80;99.90
16321;DHT22;8269;50.990;4.494;2022-09-21T05:03:34;6.70;99.90
16321;DHT22;8269;50.990;4.494;2022-09-21T05:06:00;6.80;99.90
16321;DHT22;8269;50.990;4.494;2022-09-21T05:08:26;6.80;99.90
16321;DHT22;8269;50.990;4.494;2022-09-21T05:11:17;6.80;99.90
16321;DHT22;8269;50.990;4.494;2022-09-21T05:13:44;6.70;99.90
16321;DHT22;8269;50.990;4.494;2022-09-21T05:16:10;6.70;99.90
16321;DHT22;8269;50.990;4.494;2022-09-21T05:18:36;6.60;99.90
16321;DHT22;8269;50.990;4.494;2022-09-21T05:21:02;6.60;99.90
16321;DHT22;8269;50.990;4.494;2022-09-21T05:23:29;6.70;99.90
16321;DHT22;8269;50.990;4.494;2022-09-21T05:25:56;6.70;99.90
16321;DHT22;8269;50.990;4.494;2022-09-21T05:28:22;6.60;99.90
16321;DHT22;8269;50.990;4.494;2022-09-21T05:33:41;6.60;99.90
16321;DHT22;8269;50.990;4.494;2022-09-21T05:38:52;6.70;99.90
16321;DHT22;8269;50.990;4.494;2022-09-21T05:41:17;6.60;99.90
16321;DHT22;8269;50.990;4.494;2022-09-21T05:43:43;6.60;99.90
16321;DHT22;8269;50.990;4.494;2022-09-21T05:48:47;6.60;99.90
16321;DHT22;8269;50.990;4.494;2022-09-21T05:51:29;6.70;99.90
16321;DHT22;8269;50.990;4.494;2022-09-21T05:57:04;6.90;99.90
16321;DHT22;8269;50.990;4.494;2022-09-21T06:02:19;7.00;99.90
16321;DHT22;8269;50.990;4.494;2022-09-21T06:04:47;7.00;99.90
16321;DHT22;8269;50.990;4.494;2022-09-21T06:07:14;7.10;99.90
16321;DHT22;8269;50.990;4.494;2022-09-21T06:09:39;7.20;99.90
16321;DHT22;8269;50.990;4.494;2022-09-21T06:12:05;7.30;99.90
16321;DHT22;8269;50.990;4.494;2022-09-21T06:14:31;7.30;99.90
16321;DHT22;8269;50.990;4.494;2022-09-21T06:16:56;7.40;99.90
16321;DHT22;8269;50.990;4.494;2022-09-21T06:19:22;7.40;99.90
16321;DHT22;8269;50.990;4.494;2022-09-21T06:21:47;7.30;99.90
16321;DHT22;8269;50.990;4.494;2022-09-21T06:24:13;7.50;99.90
16321;DHT22;8269;50.990;4.494;2022-09-21T06:26:39;7.50;99.90
16321;DHT22;8269;50.990;4.494;2022-09-21T06:29:04;7.60;99.90
16321;DHT22;8269;50.990;4.494;2022-09-21T06:31:30;7.60;99.90
16321;DHT22;8269;50.990;4.494;2022-09-21T06:33:56;7.60;99.90
16321;DHT22;8269;50.990;4.494;2022-09-21T06:36:21;7.70;99.90
16321;DHT22;8269;50.990;4.494;2022-09-21T06:38:47;7.80;99.90
16321;DHT22;8269;50.990;4.494;2022-09-21T06:41:12;8.00;99.90
16321;DHT22;8269;50.990;4.494;2022-09-21T06:43:38;8.10;99.90
16321;DHT22;8269;50.990;4.494;2022-09-21T06:46:04;8.10;99.90
16321;DHT22;8269;50.990;4.494;2022-09-21T06:48:32;8.10;99.90
16321;DHT22;8269;50.990;4.494;2022-09-21T06:50:59;8.20;99.90
16321;DHT22;8269;50.990;4.494;2022-09-21T06:53:29;8.30;99.90
16321;DHT22;8269;50.990;4.494;2022-09-21T06:56:03;8.40;99.90
16321;DHT22;8269;50.990;4.494;2022-09-21T06:58:30;8.40;99.90
16321;DHT22;8269;50.990;4.494;2022-09-21T07:00:55;8.50;99.90
16321;DHT22;8269;50.990;4.494;2022-09-21T07:03:21;8.70;99.90
16321;DHT22;8269;50.990;4.494;2022-09-21T07:05:47;8.70;99.90
16321;DHT22;8269;50.990;4.494;2022-09-21T07:08:13;8.80;99.90
16321;DHT22;8269;50.990;4.494;2022-09-21T07:10:39;8.70;99.90
16321;DHT22;8269;50.990;4.494;2022-09-21T07:13:05;9.00;99.90
16321;DHT22;8269;50.990;4.494;2022-09-21T07:15:33;9.20;99.90
16321;DHT22;8269;50.990;4.494;2022-09-21T07:17:59;9.40;99.90
16321;DHT22;8269;50.990;4.494;2022-09-21T07:20:24;9.50;99.90
16321;DHT22;8269;50.990;4.494;2022-09-21T07:25:16;10.30;99.90
16321;DHT22;8269;50.990;4.494;2022-09-21T07:27:42;10.70;99.90
16321;DHT22;8269;50.990;4.494;2022-09-21T07:30:08;11.10;99.90
16321;DHT22;8269;50.990;4.494;2022-09-21T07:32:34;11.30;99.90
16321;DHT22;8269;50.990;4.494;2022-09-21T07:35:01;11.30;99.90
16321;DHT22;8269;50.990;4.494;2022-09-21T07:37:27;11.60;99.90
16321;DHT22;8269;50.990;4.494;2022-09-21T07:39:53;11.70;99.90
16321;DHT22;8269;50.990;4.494;2022-09-21T07:42:20;11.90;99.90
16321;DHT22;8269;50.990;4.494;2022-09-21T07:44:47;12.30;99.90
16321;DHT22;8269;50.990;4.494;2022-09-21T07:47:13;12.80;99.90
16321;DHT22;8269;50.990;4.494;2022-09-21T07:49:39;13.40;99.90
16321;DHT22;8269;50.990;4.494;2022-09-21T07:52:06;13.80;99.90
16321;DHT22;8269;50.990;4.494;2022-09-21T07:54:34;14.30;99.90
16321;DHT22;8269;50.990;4.494;2022-09-21T07:57:00;14.60;99.90
16321;DHT22;8269;50.990;4.494;2022-09-21T07:59:44;14.60;99.90
16321;DHT22;8269;50.990;4.494;2022-09-21T08:02:10;14.80;99.90
16321;DHT22;8269;50.990;4.494;2022-09-21T08:04:36;15.00;99.90
16321;DHT22;8269;50.990;4.494;2022-09-21T08:07:02;15.00;99.90
16321;DHT22;8269;50.990;4.494;2022-09-21T08:09:28;15.00;99.90
16321;DHT22;8269;50.990;4.494;2022-09-21T08:11:53;15.20;99.90
16321;DHT22;8269;50.990;4.494;2022-09-21T08:14:20;15.30;99.90
16321;DHT22;8269;50.990;4.494;2022-09-21T08:16:46;15.60;99.90
16321;DHT22;8269;50.990;4.494;2022-09-21T08:19:15;15.70;99.90
16321;DHT22;8269;50.990;4.494;2022-09-21T08:21:47;15.80;99.90
16321;DHT22;8269;50.990;4.494;2022-09-21T08:24:13;15.80;99.90
16321;DHT22;8269;50.990;4.494;2022-09-21T08:26:38;16.00;99.90
16321;DHT22;8269;50.990;4.494;2022-09-21T08:29:05;16.20;99.90
16321;DHT22;8269;50.990;4.494;2022-09-21T08:31:31;16.40;99.90
16321;DHT22;8269;50.990;4.494;2022-09-21T08:33:57;16.50;99.90
16321;DHT22;8269;50.990;4.494;2022-09-21T08:36:24;16.60;99.90
16321;DHT22;8269;50.990;4.494;2022-09-21T08:38:49;16.40;98.70
16321;DHT22;8269;50.990;4.494;2022-09-21T08:41:25;16.50;99.70
16321;DHT22;8269;50.990;4.494;2022-09-21T08:44:07;16.80;98.70
16321;DHT22;8269;50.990;4.494;2022-09-21T08:46:36;16.90;97.60
16321;DHT22;8269;50.990;4.494;2022-09-21T08:49:10;17.20;96.40
16321;DHT22;8269;50.990;4.494;2022-09-21T08:51:51;17.30;95.20
16321;DHT22;8269;50.990;4.494;2022-09-21T08:56:55;17.40;92.60
16321;DHT22;8269;50.990;4.494;2022-09-21T08:59:22;17.30;93.50
16321;DHT22;8269;50.990;4.494;2022-09-21T09:21:15;15.50;98.80
16321;DHT22;8269;50.990;4.494;2022-09-21T09:27:00;15.50;99.70
16321;DHT22;8269;50.990;4.494;2022-09-21T09:30:32;15.40;99.90
16321;DHT22;8269;50.990;4.494;2022-09-21T09:32:48;15.50;99.70
16321;DHT22;8269;50.990;4.494;2022-09-21T09:35:32;15.50;99.40
16321;DHT22;8269;50.990;4.494;2022-09-21T09:38:11;15.40;99.60
16321;DHT22;8269;50.990;4.494;2022-09-21T09:46:55;15.50;99.10
16321;DHT22;8269;50.990;4.494;2022-09-21T09:52:12;15.50;98.50
16321;DHT22;8269;50.990;4.494;2022-09-21T09:54:38;15.60;99.10
16321;DHT22;8269;50.990;4.494;2022-09-21T09:57:05;15.70;98.90
16321;DHT22;8269;50.990;4.494;2022-09-21T09:59:38;15.70;98.90
16321;DHT22;8269;50.990;4.494;2022-09-21T10:02:19;15.70;99.00
16321;DHT22;8269;50.990;4.494;2022-09-21T10:05:02;15.70;98.70
16321;DHT22;8269;50.990;4.494;2022-09-21T10:07:41;15.70;97.00
16321;DHT22;8269;50.990;4.494;2022-09-21T10:10:36;15.70;97.10
16321;DHT22;8269;50.990;4.494;2022-09-21T10:15:28;15.70;96.50
16321;DHT22;8269;50.990;4.494;2022-09-21T10:18:17;15.80;97.40
16321;DHT22;8269;50.990;4.494;2022-09-21T10:20:54;16.00;95.40
16321;DHT22;8269;50.990;4.494;2022-09-21T10:23:21;16.20;94.80
16321;DHT22;8269;50.990;4.494;2022-09-21T10:26:02;16.20;94.60
16321;DHT22;8269;50.990;4.494;2022-09-21T10:28:30;16.30;94.60
16321;DHT22;8269;50.990;4.494;2022-09-21T10:31:16;16.30;93.90
16321;DHT22;8269;50.990;4.494;2022-09-21T10:36:36;16.60;92.90
16321;DHT22;8269;50.990;4.494;2022-09-21T10:39:26;16.70;92.20
16321;DHT22;8269;50.990;4.494;2022-09-21T10:42:10;16.80;90.90
16321;DHT22;8269;50.990;4.494;2022-09-21T10:44:42;17.00;91.50
16321;DHT22;8269;50.990;4.494;2022-09-21T10:47:36;17.10;90.20
16321;DHT22;8269;50.990;4.494;2022-09-21T10:50:07;17.10;89.00
16321;DHT22;8269;50.990;4.494;2022-09-21T10:52:45;16.90;88.80
16321;DHT22;8269;50.990;4.494;2022-09-21T10:55:19;16.80;90.20
16321;DHT22;8269;50.990;4.494;2022-09-21T10:57:47;16.70;89.80
16321;DHT22;8269;50.990;4.494;2022-09-21T11:02:55;16.80;85.30
16321;DHT22;8269;50.990;4.494;2022-09-21T11:05:41;16.80;83.80
16321;DHT22;8269;50.990;4.494;2022-09-21T11:08:19;16.80;84.30
16321;DHT22;8269;50.990;4.494;2022-09-21T11:11:12;16.80;83.50
16321;DHT22;8269;50.990;4.494;2022-09-21T11:16:57;16.70;76.40
16321;DHT22;8269;50.990;4.494;2022-09-21T11:22:06;16.60;78.30
16321;DHT22;8269;50.990;4.494;2022-09-21T11:27:41;17.10;73.20
16321;DHT22;8269;50.990;4.494;2022-09-21T11:30:09;17.30;73.20
16321;DHT22;8269;50.990;4.494;2022-09-21T11:32:42;17.40;71.00
16321;DHT22;8269;50.990;4.494;2022-09-21T11:38:15;17.60;70.10
16321;DHT22;8269;50.990;4.494;2022-09-21T11:54:57;17.70;71.80
16321;DHT22;8269;50.990;4.494;2022-09-21T12:00:17;17.10;71.20
16321;DHT22;8269;50.990;4.494;2022-09-21T12:20:15;16.70;75.70
16321;DHT22;8269;50.990;4.494;2022-09-21T12:22:44;16.70;76.50
16321;DHT22;8269;50.990;4.494;2022-09-21T12:25:22;16.60;75.60
16321;DHT22;8269;50.990;4.494;2022-09-21T12:28:01;16.60;75.30
16321;DHT22;8269;50.990;4.494;2022-09-21T12:30:29;16.50;74.40
16321;DHT22;8269;50.990;4.494;2022-09-21T12:33:14;16.50;75.00
16321;DHT22;8269;50.990;4.494;2022-09-21T12:35:46;16.50;75.90
16321;DHT22;8269;50.990;4.494;2022-09-21T12:38:23;16.50;76.20
16321;DHT22;8269;50.990;4.494;2022-09-21T12:43:54;16.40;76.90
16321;DHT22;8269;50.990;4.494;2022-09-21T12:46:32;16.40;75.00
16321;DHT22;8269;50.990;4.494;2022-09-21T12:49:01;16.40;75.60
16321;DHT22;8269;50.990;4.494;2022-09-21T12:51:37;16.40;76.00
16321;DHT22;8269;50.990;4.494;2022-09-21T12:54:11;16.50;75.40
16321;DHT22;8269;50.990;4.494;2022-09-21T12:56:55;16.50;75.80
16321;DHT22;8269;50.990;4.494;2022-09-21T12:59:39;16.60;76.70
16321;DHT22;8269;50.990;4.494;2022-09-21T13:02:23;16.60;77.40
16321;DHT22;8269;50.990;4.494;2022-09-21T13:13:37;17.10;73.90
16321;DHT22;8269;50.990;4.494;2022-09-21T13:16:05;17.10;72.20
16321;DHT22;8269;50.990;4.494;2022-09-21T13:18:33;17.20;71.30
16321;DHT22;8269;50.990;4.494;2022-09-21T13:21:23;17.20;70.10
16321;DHT22;8269;50.990;4.494;2022-09-21T13:23:59;17.20;69.30
16321;DHT22;8269;50.990;4.494;2022-09-21T13:26:40;17.10;68.20
16321;DHT22;8269;50.990;4.494;2022-09-21T13:32:20;17.00;68.10
16321;DHT22;8269;50.990;4.494;2022-09-21T13:34:46;17.00;70.10
16321;DHT22;8269;50.990;4.494;2022-09-21T13:47:41;17.20;69.20
16321;DHT22;8269;50.990;4.494;2022-09-21T13:52:50;17.50;70.10
16321;DHT22;8269;50.990;4.494;2022-09-21T13:55:30;17.60;71.40
16321;DHT22;8269;50.990;4.494;2022-09-21T13:58:01;17.80;69.80
16321;DHT22;8269;50.990;4.494;2022-09-21T14:00:54;17.80;68.20
16321;DHT22;8269;50.990;4.494;2022-09-21T14:03:38;17.80;69.20
16321;DHT22;8269;50.990;4.494;2022-09-21T14:06:32;17.90;67.00
16321;DHT22;8269;50.990;4.494;2022-09-21T14:09:06;17.90;66.70
16321;DHT22;8269;50.990;4.494;2022-09-21T14:11:36;17.80;66.70
16321;DHT22;8269;50.990;4.494;2022-09-21T14:16:57;17.60;66.50
16321;DHT22;8269;50.990;4.494;2022-09-21T14:24:45;17.40;66.00
16321;DHT22;8269;50.990;4.494;2022-09-21T14:27:40;17.40;66.40
16321;DHT22;8269;50.990;4.494;2022-09-21T14:32:45;17.20;66.00
16321;DHT22;8269;50.990;4.494;2022-09-21T14:35:18;17.20;66.40
16321;DHT22;8269;50.990;4.494;2022-09-21T14:37:56;17.30;65.50
16321;DHT22;8269;50.990;4.494;2022-09-21T14:40:33;17.40;65.70
16321;DHT22;8269;50.990;4.494;2022-09-21T14:43:07;17.40;64.60
16321;DHT22;8269;50.990;4.494;2022-09-21T14:49:02;17.50;63.90
16321;DHT22;8269;50.990;4.494;2022-09-21T14:54:24;17.60;63.40
16321;DHT22;8269;50.990;4.494;2022-09-21T15:02:29;17.80;63.30
16321;DHT22;8269;50.990;4.494;2022-09-21T15:11:06;18.00;60.80
16321;DHT22;8269;50.990;4.494;2022-09-21T15:14:12;17.80;58.20
16321;DHT22;8269;50.990;4.494;2022-09-21T15:16:42;17.80;58.90
16321;DHT22;8269;50.990;4.494;2022-09-21T15:22:16;17.60;61.50
16321;DHT22;8269;50.990;4.494;2022-09-21T15:27:16;17.50;63.10
16321;DHT22;8269;50.990;4.494;2022-09-21T15:29:44;17.40;62.50
16321;DHT22;8269;50.990;4.494;2022-09-21T15:32:24;17.30;64.40
16321;DHT22;8269;50.990;4.494;2022-09-21T15:35:00;17.20;66.10
16321;DHT22;8269;50.990;4.494;2022-09-21T15:37:27;17.00;66.90
16321;DHT22;8269;50.990;4.494;2022-09-21T15:40:05;17.00;68.30
16321;DHT22;8269;50.990;4.494;2022-09-21T15:42:33;17.00;69.90
16321;DHT22;8269;50.990;4.494;2022-09-21T15:45:16;16.90;70.00
16321;DHT22;8269;50.990;4.494;2022-09-21T15:47:42;16.90;71.70
16321;DHT22;8269;50.990;4.494;2022-09-21T15:50:16;16.80;72.40
16321;DHT22;8269;50.990;4.494;2022-09-21T15:52:51;16.80;72.90
16321;DHT22;8269;50.990;4.494;2022-09-21T15:55:19;16.70;74.10
16321;DHT22;8269;50.990;4.494;2022-09-21T15:57:53;16.60;74.30
16321;DHT22;8269;50.990;4.494;2022-09-21T16:00:25;16.50;74.70
16321;DHT22;8269;50.990;4.494;2022-09-21T16:05:41;16.30;76.80
16321;DHT22;8269;50.990;4.494;2022-09-21T16:08:30;16.20;78.00
16321;DHT22;8269;50.990;4.494;2022-09-21T16:11:32;16.10;78.70
16321;DHT22;8269;50.990;4.494;2022-09-21T16:14:11;16.00;79.80
16321;DHT22;8269;50.990;4.494;2022-09-21T16:22:25;15.80;81.70
16321;DHT22;8269;50.990;4.494;2022-09-21T16:24:55;15.80;82.30
16321;DHT22;8269;50.990;4.494;2022-09-21T16:27:24;15.80;82.90
16321;DHT22;8269;50.990;4.494;2022-09-21T16:29:52;15.70;83.00
16321;DHT22;8269;50.990;4.494;2022-09-21T16:34:48;15.70;85.50
16321;DHT22;8269;50.990;4.494;2022-09-21T16:39:57;15.80;87.20
16321;DHT22;8269;50.990;4.494;2022-09-21T16:42:24;15.80;87.60
16321;DHT22;8269;50.990;4.494;2022-09-21T16:44:53;15.80;86.90
16321;DHT22;8269;50.990;4.494;2022-09-21T16:47:24;15.90;86.40
16321;DHT22;8269;50.990;4.494;2022-09-21T16:49:51;15.90;86.10
16321;DHT22;8269;50.990;4.494;2022-09-21T16:52:25;15.90;85.70
16321;DHT22;8269;50.990;4.494;2022-09-21T16:54:53;15.90;86.50
16321;DHT22;8269;50.990;4.494;2022-09-21T16:57:19;15.90;86.90
16321;DHT22;8269;50.990;4.494;2022-09-21T16:59:44;15.90;87.50
16321;DHT22;8269;50.990;4.494;2022-09-21T17:02:11;15.80;88.40
16321;DHT22;8269;50.990;4.494;2022-09-21T17:04:38;15.80;90.50
16321;DHT22;8269;50.990;4.494;2022-09-21T17:07:05;15.70;91.80
16321;DHT22;8269;50.990;4.494;2022-09-21T17:09:38;15.60;92.30
16321;DHT22;8269;50.990;4.494;2022-09-21T17:12:09;15.50;93.90
16321;DHT22;8269;50.990;4.494;2022-09-21T17:14:36;15.40;94.90
16321;DHT22;8269;50.990;4.494;2022-09-21T17:17:21;15.20;95.80
16321;DHT22;8269;50.990;4.494;2022-09-21T17:19:49;15.10;96.20
16321;DHT22;8269;50.990;4.494;2022-09-21T17:22:15;15.00;96.40
16321;DHT22;8269;50.990;4.494;2022-09-21T17:24:49;14.90;97.10
16321;DHT22;8269;50.990;4.494;2022-09-21T17:27:16;14.90;98.30
16321;DHT22;8269;50.990;4.494;2022-09-21T17:29:43;14.80;98.70
16321;DHT22;8269;50.990;4.494;2022-09-21T17:32:14;14.70;99.30
16321;DHT22;8269;50.990;4.494;2022-09-21T17:34:40;14.60;99.50
16321;DHT22;8269;50.990;4.494;2022-09-21T17:37:07;14.50;99.50
16321;DHT22;8269;50.990;4.494;2022-09-21T17:39:34;14.40;99.50
16321;DHT22;8269;50.990;4.494;2022-09-21T17:42:01;14.30;99.70
16321;DHT22;8269;50.990;4.494;2022-09-21T17:47:24;14.10;99.90
16321;DHT22;8269;50.990;4.494;2022-09-21T17:50:15;14.10;99.90
16321;DHT22;8269;50.990;4.494;2022-09-21T17:52:42;14.00;99.90
16321;DHT22;8269;50.990;4.494;2022-09-21T17:55:27;13.90;99.90
16321;DHT22;8269;50.990;4.494;2022-09-21T17:58:20;13.80;99.90
16321;DHT22;8269;50.990;4.494;2022-09-21T18:01:04;13.70;99.90
16321;DHT22;8269;50.990;4.494;2022-09-21T18:03:36;13.70;99.90
16321;DHT22;8269;50.990;4.494;2022-09-21T18:06:09;13.60;99.90
16321;DHT22;8269;50.990;4.494;2022-09-21T18:08:36;13.50;99.90
16321;DHT22;8269;50.990;4.494;2022-09-21T18:11:29;13.40;99.90
16321;DHT22;8269;50.990;4.494;2022-09-21T18:22:40;13.10;99.90
16321;DHT22;8269;50.990;4.494;2022-09-21T18:25:13;13.00;99.90
16321;DHT22;8269;50.990;4.494;2022-09-21T18:27:41;12.90;99.90
16321;DHT22;8269;50.990;4.494;2022-09-21T18:30:10;12.90;99.90
16321;DHT22;8269;50.990;4.494;2022-09-21T18:32:42;12.80;99.90
16321;DHT22;8269;50.990;4.494;2022-09-21T18:38:09;12.70;99.90
16321;DHT22;8269;50.990;4.494;2022-09-21T18:40:59;12.60;99.90
16321;DHT22;8269;50.990;4.494;2022-09-21T18:46:27;12.40;99.90
16321;DHT22;8269;50.990;4.494;2022-09-21T18:54:39;12.10;99.90
16321;DHT22;8269;50.990;4.494;2022-09-21T18:57:13;12.00;99.90
16321;DHT22;8269;50.990;4.494;2022-09-21T18:59:40;12.00;99.90
16321;DHT22;8269;50.990;4.494;2022-09-21T19:02:14;11.90;99.90
16321;DHT22;8269;50.990;4.494;2022-09-21T19:04:41;11.80;99.90
16321;DHT22;8269;50.990;4.494;2022-09-21T19:07:12;11.80;99.90
16321;DHT22;8269;50.990;4.494;2022-09-21T19:10:11;11.80;99.90
16321;DHT22;8269;50.990;4.494;2022-09-21T19:12:51;11.70;99.90
16321;DHT22;8269;50.990;4.494;2022-09-21T19:15:40;11.70;99.90
16321;DHT22;8269;50.990;4.494;2022-09-21T19:32:00;11.50;99.90
16321;DHT22;8269;50.990;4.494;2022-09-21T19:34:25;11.50;99.90
16321;DHT22;8269;50.990;4.494;2022-09-21T19:36:52;11.40;99.90
16321;DHT22;8269;50.990;4.494;2022-09-21T19:39:22;11.30;99.90
16321;DHT22;8269;50.990;4.494;2022-09-21T19:47:33;11.10;99.90
16321;DHT22;8269;50.990;4.494;2022-09-21T19:50:22;11.10;99.90
16321;DHT22;8269;50.990;4.494;2022-09-21T19:52:48;10.90;99.90
16321;DHT22;8269;50.990;4.494;2022-09-21T19:55:19;10.90;99.90
16321;DHT22;8269;50.990;4.494;2022-09-21T19:58:04;10.80;99.90
16321;DHT22;8269;50.990;4.494;2022-09-21T20:00:53;10.80;99.90
16321;DHT22;8269;50.990;4.494;2022-09-21T20:03:32;10.80;99.90
16321;DHT22;8269;50.990;4.494;2022-09-21T20:08:54;10.80;99.90
16321;DHT22;8269;50.990;4.494;2022-09-21T20:14:15;10.80;99.90
16321;DHT22;8269;50.990;4.494;2022-09-21T20:16:46;10.80;99.90
16321;DHT22;8269;50.990;4.494;2022-09-21T20:21:43;10.80;99.90
16321;DHT22;8269;50.990;4.494;2022-09-21T20:27:31;10.70;99.90
16321;DHT22;8269;50.990;4.494;2022-09-21T20:30:00;10.70;99.90
16321;DHT22;8269;50.990;4.494;2022-09-21T20:32:26;10.60;99.90
16321;DHT22;8269;50.990;4.494;2022-09-21T20:34:52;10.60;99.90